Slave Lake Airport
CYZH : now visible

Airfield :











YOU CAN JOIN US ON...

 
LOGIN :

Register | Disclaimer

   EN    FR    IT 

 









Legend :    VFR   Marginal VFR   IFR   Intensive IFR   Very Intensive IFR
Visi :
Ceiling :
>= 8 km
>= 3000ft
5 to 8 km
1000 to 3000 ft
1500m to 5 km
500 to 1000 ft
800 to 1500m
200 to 500 ft
< 800m
< 200 ft
Symbols :   Thunderstorms  Fog  Heavy snow  Heavy precipitations  Wind > 20 kt






- Airport Elevation : 1912 ft
- IATA code : YZH


CYZH - Slave Lake

CURRENT METAR :
  • 080800Z AUTO 08006KT 9SM OVC090 M16/M18 A2999 RMK SLP205

EXPIRED METARs :
  • 080700Z AUTO 09007KT 9SM OVC090 M17/M19 A3000 RMK SLP210
  • 080600Z AUTO 08008KT 9SM OVC090 M17/M19 A3001 RMK SLP213

TAF TAF CYZH
Valid from the 08 at 07:00 until the 08 at 19:00 UTC


080644Z 0807/0819 09008KT P6SM SCT020 OVC090
TEMPO 0807/0812 5SM -SN BKN020 OVC080
FM081200 10008KT P6SM SCT010 BKN060
TEMPO 0812/0819 3SM -SN BR BKN010 OVC060 RMK FCST BASED ON AUTO OBS. NXT FCST BY 081300Z



MET'MAP, your aeronautical weather chart ! - Copyright ORBIFLY December 2007 - Disclaimer

ORBIFLY MET'MAP TEAM :

Programming & Development : Alexandra Zaïnal
Concept & original design : Baudouin d'Aumeries
Assistance for programming : Marc-Olivier Méhu
Technical & hardware support : Manuel Goepfert

Contact : metmap@orbifly.com




SOURCES & CREDITS :

   NOAA       Earth
Advisory